Time;durP1;ratioP1;P1;durP2;ratioP2;P2;SDS_P1;SDS_P2;PMS_P1;PMS_P2;Temp;Humidity;BMP_temperature;BMP_pressure;BME280_temperature;BME280_humidity;BME280_pressure;Samples;Min_cycle;Max_cycle;Signal;HPM_P1;HPM_P2
2024/01/04 00:00:52;;;;;;;1999.90;999.90;;;6.60;99.90;;;;;;5107802;27;20698;-82
2024/01/04 00:03:19;;;;;;;1999.90;999.90;;;6.60;99.90;;;;;;5146569;27;20573;-82
2024/01/04 00:05:46;;;;;;;1999.90;999.90;;;6.70;99.90;;;;;;5132439;27;20043;-82
2024/01/04 00:08:11;;;;;;;1999.90;999.90;;;6.60;99.90;;;;;;5122175;27;20122;-83
2024/01/04 00:10:37;;;;;;;1999.90;999.90;;;6.60;99.90;;;;;;5109188;27;20154;-82
2024/01/04 00:13:02;;;;;;;1999.90;999.90;;;6.60;99.90;;;;;;5112910;27;20485;-82
2024/01/04 00:15:28;;;;;;;1999.90;999.90;;;6.60;99.90;;;;;;5122094;27;20044;-82
2024/01/04 00:17:54;;;;;;;1999.90;999.90;;;6.60;99.90;;;;;;5129903;27;20042;-82
2024/01/04 00:20:19;;;;;;;1999.90;999.90;;;6.60;99.90;;;;;;5105539;27;20491;-82
2024/01/04 00:22:46;;;;;;;1999.90;999.90;;;6.60;99.90;;;;;;5121864;27;20139;-82
2024/01/04 00:25:11;;;;;;;1999.90;999.90;;;6.60;99.90;;;;;;5107599;27;20054;-82
2024/01/04 00:27:37;;;;;;;1999.90;999.90;;;6.60;99.90;;;;;;5097399;27;20043;-82
2024/01/04 00:30:03;;;;;;;1999.90;999.90;;;6.60;99.90;;;;;;5107240;27;20031;-82
2024/01/04 00:32:29;;;;;;;1999.90;999.90;;;6.60;99.90;;;;;;5139657;27;20072;-83
2024/01/04 00:34:54;;;;;;;1999.90;999.90;;;6.50;99.90;;;;;;5124909;27;20026;-82
2024/01/04 00:37:20;;;;;;;1999.90;999.90;;;6.50;99.90;;;;;;5128596;27;20090;-82
2024/01/04 00:39:46;;;;;;;1999.90;999.90;;;6.60;99.90;;;;;;5134238;27;20081;-82
2024/01/04 00:42:12;;;;;;;1999.90;999.90;;;6.50;99.90;;;;;;5131491;27;20073;-82
2024/01/04 00:44:37;;;;;;;1999.90;999.90;;;6.50;99.90;;;;;;5125420;27;20031;-83
2024/01/04 00:47:03;;;;;;;1999.90;999.90;;;6.50;99.90;;;;;;5094772;28;20050;-82
2024/01/04 00:49:31;;;;;;;1999.90;999.90;;;6.50;99.90;;;;;;5134497;27;20042;-82
2024/01/04 00:51:57;;;;;;;1999.90;999.90;;;6.50;99.90;;;;;;5122837;27;20070;-82
2024/01/04 00:54:23;;;;;;;1999.90;999.90;;;6.40;99.90;;;;;;5107573;27;20059;-81
2024/01/04 00:56:48;;;;;;;1999.90;999.90;;;6.40;99.90;;;;;;5100157;27;20064;-82
2024/01/04 00:59:14;;;;;;;1999.90;999.90;;;6.40;99.90;;;;;;5116684;28;20065;-82
2024/01/04 01:01:39;;;;;;;1999.90;999.90;;;6.40;99.90;;;;;;5110736;28;20035;-82
2024/01/04 01:04:05;;;;;;;1999.90;999.90;;;6.30;99.90;;;;;;5116798;27;20031;-82
2024/01/04 01:06:31;;;;;;;1999.90;999.90;;;6.40;99.90;;;;;;5108651;27;20035;-82
2024/01/04 01:08:56;;;;;;;1999.90;999.90;;;6.30;99.90;;;;;;5134901;27;20122;-82
2024/01/04 01:11:22;;;;;;;1999.90;999.90;;;6.30;99.90;;;;;;5103473;28;20647;-82
2024/01/04 01:13:47;;;;;;;1999.90;999.90;;;6.30;99.90;;;;;;5102716;27;20039;-82
2024/01/04 01:16:14;;;;;;;1999.90;999.90;;;6.30;99.90;;;;;;5120437;27;20544;-81
2024/01/04 01:18:40;;;;;;;1999.90;999.90;;;6.30;99.90;;;;;;5096272;28;20035;-82
2024/01/04 01:21:06;;;;;;;1999.90;999.90;;;6.20;99.90;;;;;;5130993;27;20084;-82
2024/01/04 01:23:31;;;;;;;1999.90;999.90;;;6.20;99.90;;;;;;5118939;27;20460;-82
2024/01/04 01:25:57;;;;;;;1999.90;999.90;;;6.20;99.90;;;;;;5150096;27;20042;-82
2024/01/04 01:28:23;;;;;;;1999.90;999.90;;;6.20;99.90;;;;;;5106003;27;20050;-82
2024/01/04 01:30:50;;;;;;;1999.90;999.90;;;6.20;99.90;;;;;;5123438;27;20115;-81
2024/01/04 01:33:15;;;;;;;1999.90;999.90;;;6.20;99.90;;;;;;5122729;27;20039;-82
2024/01/04 01:35:41;;;;;;;1999.90;999.90;;;6.20;99.90;;;;;;5103094;27;20061;-82
2024/01/04 01:38:06;;;;;;;1999.90;999.90;;;6.20;99.90;;;;;;5099445;27;20622;-82
2024/01/04 01:40:32;;;;;;;1999.90;999.90;;;6.10;99.90;;;;;;5143506;27;20047;-84
2024/01/04 01:42:59;;;;;;;1999.90;999.90;;;6.20;99.90;;;;;;5116126;27;20475;-82
2024/01/04 01:45:25;;;;;;;1999.90;999.90;;;6.20;99.90;;;;;;5138058;27;20145;-82
2024/01/04 01:47:50;;;;;;;1999.90;999.90;;;6.20;99.90;;;;;;5097244;27;20497;-82
2024/01/04 01:50:19;;;;;;;1999.90;999.90;;;6.10;99.90;;;;;;5115934;27;20130;-82
2024/01/04 01:52:46;;;;;;;1999.90;999.90;;;6.10;99.90;;;;;;5139498;27;20042;-83
2024/01/04 01:55:14;;;;;;;1999.90;999.90;;;6.10;99.90;;;;;;5117921;27;20046;-82
2024/01/04 01:57:39;;;;;;;1999.90;999.90;;;6.10;99.90;;;;;;5110159;27;20088;-82
2024/01/04 02:00:06;;;;;;;1999.90;999.90;;;6.10;99.90;;;;;;5110975;27;20495;-82
2024/01/04 02:02:33;;;;;;;1999.90;999.90;;;6.00;99.90;;;;;;5110891;27;20039;-82
2024/01/04 02:05:00;;;;;;;1999.90;999.90;;;6.00;99.90;;;;;;5133976;27;20046;-82
2024/01/04 02:07:26;;;;;;;1999.90;999.90;;;5.90;99.90;;;;;;5141966;27;20043;-82
2024/01/04 02:09:51;;;;;;;1999.90;999.90;;;6.00;99.90;;;;;;5107421;27;20554;-82
2024/01/04 02:12:17;;;;;;;1999.90;999.90;;;6.00;99.90;;;;;;5103106;27;20444;-82
2024/01/04 02:14:43;;;;;;;1999.90;999.90;;;5.90;99.90;;;;;;5125630;27;20087;-82
2024/01/04 02:17:10;;;;;;;1999.90;999.90;;;5.90;99.90;;;;;;5126974;27;20031;-82
2024/01/04 02:19:36;;;;;;;1999.90;999.90;;;5.90;99.90;;;;;;5122813;27;20111;-82
2024/01/04 02:22:02;;;;;;;1999.90;999.90;;;5.80;99.90;;;;;;5116584;27;20049;-82
2024/01/04 02:24:28;;;;;;;1999.90;999.90;;;5.80;99.90;;;;;;5138685;27;20494;-82
2024/01/04 02:26:53;;;;;;;1999.90;999.90;;;5.90;99.90;;;;;;5103009;27;20129;-82
2024/01/04 02:29:19;;;;;;;1999.90;999.90;;;5.90;99.90;;;;;;5122899;27;20061;-82
2024/01/04 02:31:47;;;;;;;1999.90;999.90;;;5.80;99.90;;;;;;5127571;27;20039;-83
2024/01/04 02:34:12;;;;;;;1999.90;999.90;;;5.70;99.90;;;;;;5125267;27;20039;-82
2024/01/04 02:36:38;;;;;;;1999.90;999.90;;;5.60;99.90;;;;;;5097274;27;20140;-82
2024/01/04 02:39:04;;;;;;;1999.90;999.90;;;5.50;99.90;;;;;;5116208;27;20101;-82
2024/01/04 02:41:30;;;;;;;1999.90;999.90;;;5.40;99.90;;;;;;5115067;27;20088;-82
2024/01/04 02:43:55;;;;;;;1999.90;999.90;;;5.40;99.90;;;;;;5124643;27;20034;-82
2024/01/04 02:46:21;;;;;;;1999.90;999.90;;;5.40;99.90;;;;;;5115734;27;20073;-82
2024/01/04 02:48:47;;;;;;;1999.90;999.90;;;5.30;99.90;;;;;;5105063;27;20101;-82
2024/01/04 02:51:12;;;;;;;1999.90;999.90;;;5.30;99.90;;;;;;5122376;27;20095;-82
2024/01/04 02:53:38;;;;;;;1999.90;999.90;;;5.20;99.90;;;;;;5115861;27;20039;-82
2024/01/04 02:56:04;;;;;;;1999.90;999.90;;;5.10;99.90;;;;;;5120240;27;20035;-82
2024/01/04 02:58:29;;;;;;;1999.90;999.90;;;5.10;99.90;;;;;;5131869;27;20181;-82
2024/01/04 03:00:55;;;;;;;1999.90;999.90;;;5.00;99.90;;;;;;5137506;27;20554;-82
2024/01/04 03:03:21;;;;;;;1999.90;999.90;;;5.00;99.90;;;;;;5123451;27;20046;-83
2024/01/04 03:05:46;;;;;;;1999.90;999.90;;;5.00;99.90;;;;;;5149121;27;20030;-82
2024/01/04 03:08:12;;;;;;;1999.90;999.90;;;5.00;99.90;;;;;;5143980;27;20035;-82
2024/01/04 03:10:38;;;;;;;1999.90;999.90;;;4.90;99.90;;;;;;5123717;27;20059;-82
2024/01/04 03:13:04;;;;;;;1999.90;999.90;;;4.80;99.90;;;;;;5132866;27;20773;-82
2024/01/04 03:15:30;;;;;;;1999.90;999.90;;;4.80;99.90;;;;;;5125317;27;20056;-82
2024/01/04 03:17:56;;;;;;;1999.90;999.90;;;4.70;99.90;;;;;;5121708;27;20400;-82
2024/01/04 03:20:21;;;;;;;1999.90;999.90;;;4.70;99.90;;;;;;5099728;27;20088;-82
2024/01/04 03:22:47;;;;;;;1999.90;999.90;;;4.70;99.90;;;;;;5115549;27;20059;-82
2024/01/04 03:25:13;;;;;;;1999.90;999.90;;;4.70;99.90;;;;;;5121616;27;20491;-82
2024/01/04 03:27:39;;;;;;;1999.90;999.90;;;4.70;99.90;;;;;;5106651;27;20038;-82
2024/01/04 03:30:06;;;;;;;1999.90;999.90;;;4.80;99.90;;;;;;5097180;27;20046;-82
2024/01/04 03:32:32;;;;;;;1999.90;999.90;;;4.70;99.90;;;;;;5104245;27;20125;-82
2024/01/04 03:34:57;;;;;;;1999.90;999.90;;;4.80;99.90;;;;;;5107464;27;20109;-82
2024/01/04 03:37:23;;;;;;;1999.90;999.90;;;4.80;99.90;;;;;;5121264;27;20043;-82
2024/01/04 03:39:49;;;;;;;1999.90;999.90;;;4.80;99.90;;;;;;5137235;27;20443;-82
2024/01/04 03:42:15;;;;;;;1999.90;999.90;;;4.70;99.90;;;;;;5141222;27;20512;-83
2024/01/04 03:44:42;;;;;;;1999.90;999.90;;;4.70;99.90;;;;;;5130677;27;20046;-82
2024/01/04 03:47:08;;;;;;;1999.90;999.90;;;4.70;99.90;;;;;;5120105;27;20034;-82
2024/01/04 03:49:33;;;;;;;1999.90;999.90;;;4.60;99.90;;;;;;5122287;27;20065;-82
2024/01/04 03:51:59;;;;;;;1999.90;999.90;;;4.60;99.90;;;;;;5139907;27;20071;-82
2024/01/04 03:54:25;;;;;;;1999.90;999.90;;;4.70;99.90;;;;;;5098966;27;20050;-83
2024/01/04 03:56:51;;;;;;;1999.90;999.90;;;4.70;99.90;;;;;;5108707;27;20496;-83
2024/01/04 03:59:17;;;;;;;1999.90;999.90;;;4.80;99.90;;;;;;5110879;27;20050;-82
2024/01/04 04:01:44;;;;;;;1999.90;999.90;;;4.80;99.90;;;;;;5107445;27;20042;-82
2024/01/04 04:04:10;;;;;;;1999.90;999.90;;;4.80;99.90;;;;;;5125509;27;20047;-82
2024/01/04 04:06:36;;;;;;;1999.90;999.90;;;4.70;99.90;;;;;;5124633;27;20415;-82
2024/01/04 04:09:02;;;;;;;1999.90;999.90;;;4.60;99.90;;;;;;5124129;27;20050;-82
2024/01/04 04:11:27;;;;;;;1999.90;999.90;;;4.60;99.90;;;;;;5110718;27;20155;-82
2024/01/04 04:13:54;;;;;;;1999.90;999.90;;;4.60;99.90;;;;;;5112724;27;20048;-82
2024/01/04 04:16:19;;;;;;;1999.90;999.90;;;4.60;99.90;;;;;;5109668;27;20118;-82
2024/01/04 04:18:45;;;;;;;1999.90;999.90;;;4.70;99.90;;;;;;5124615;27;20122;-82
2024/01/04 04:21:22;;;;;;;1999.90;999.90;;;4.60;99.90;;;;;;5109483;27;20471;-82
2024/01/04 04:23:49;;;;;;;1999.90;999.90;;;4.60;99.90;;;;;;5137481;27;20051;-82
2024/01/04 04:26:22;;;;;;;1999.90;999.90;;;4.50;99.90;;;;;;5124449;27;20077;-82
2024/01/04 04:28:51;;;;;;;1999.90;999.90;;;4.50;99.90;;;;;;5134848;27;20091;-82
2024/01/04 04:31:18;;;;;;;1999.90;999.90;;;4.40;99.90;;;;;;5114819;27;20494;-82
2024/01/04 04:33:45;;;;;;;1999.90;999.90;;;4.30;99.90;;;;;;5119296;27;20039;-82
2024/01/04 04:36:11;;;;;;;1999.90;999.90;;;4.30;99.90;;;;;;5147252;27;20708;-82
2024/01/04 04:38:38;;;;;;;1999.90;999.90;;;4.40;99.90;;;;;;5121370;27;20114;-83
2024/01/04 04:41:05;;;;;;;9.32;7.80;;;4.40;99.90;;;;;;5105992;27;20049;-82
2024/01/04 04:43:31;;;;;;;13.20;11.85;;;4.30;99.90;;;;;;5114427;27;20542;-82
2024/01/04 04:45:57;;;;;;;12.35;11.15;;;4.30;99.90;;;;;;5141885;27;20078;-82
2024/01/04 04:48:23;;;;;;;89.63;48.28;;;4.30;99.90;;;;;;5123405;27;20562;-82
2024/01/04 04:50:53;;;;;;;11.85;10.75;;;4.30;99.90;;;;;;5124834;27;20482;-82
2024/01/04 04:53:19;;;;;;;11.23;10.32;;;4.40;99.90;;;;;;5149762;27;20031;-82
2024/01/04 04:55:45;;;;;;;10.38;9.57;;;4.40;99.90;;;;;;5117368;27;20243;-82
2024/01/04 04:58:11;;;;;;;11.38;10.35;;;4.40;99.90;;;;;;5149497;27;20109;-82
2024/01/04 05:00:36;;;;;;;10.02;9.32;;;4.30;99.90;;;;;;5144340;27;20031;-82
2024/01/04 05:03:02;;;;;;;11.07;10.18;;;4.30;99.90;;;;;;5137111;27;20043;-82
2024/01/04 05:05:29;;;;;;;10.73;9.93;;;4.30;99.90;;;;;;5112880;27;20056;-82
2024/01/04 05:07:55;;;;;;;12.10;11.07;;;4.30;99.90;;;;;;5100931;27;20039;-83
2024/01/04 05:10:22;;;;;;;10.90;10.10;;;4.20;99.90;;;;;;5148774;27;20076;-82
2024/01/04 05:12:48;;;;;;;11.25;10.18;;;4.30;99.90;;;;;;5123466;27;20123;-82
2024/01/04 05:15:14;;;;;;;11.10;10.30;;;4.20;99.90;;;;;;5147365;27;20129;-82
2024/01/04 05:17:39;;;;;;;10.68;9.80;;;4.10;99.90;;;;;;5118500;27;20138;-83
2024/01/04 05:20:05;;;;;;;11.60;10.63;;;4.10;99.90;;;;;;5109802;27;20080;-83
2024/01/04 05:22:31;;;;;;;12.02;11.02;;;4.00;99.90;;;;;;5140910;27;20063;-82
2024/01/04 05:24:57;;;;;;;11.57;10.40;;;3.90;99.90;;;;;;5115209;27;20052;-82
2024/01/04 05:27:23;;;;;;;11.32;10.40;;;4.00;99.90;;;;;;5139806;27;20042;-82
2024/01/04 05:29:48;;;;;;;11.88;10.88;;;3.90;99.90;;;;;;5119614;27;20776;-82
2024/01/04 05:32:14;;;;;;;11.75;10.85;;;3.90;99.90;;;;;;5109700;27;20031;-82
2024/01/04 05:34:42;;;;;;;12.35;11.43;;;3.90;99.90;;;;;;5112378;27;20035;-82
2024/01/04 05:37:07;;;;;;;11.98;11.02;;;3.90;99.90;;;;;;5133602;27;20381;-82
2024/01/04 05:39:34;;;;;;;12.55;11.38;;;3.90;99.90;;;;;;5118034;27;20038;-82
2024/01/04 05:41:59;;;;;;;13.45;11.57;;;3.90;99.90;;;;;;5130265;27;20157;-82
2024/01/04 05:44:25;;;;;;;12.23;11.40;;;3.90;99.90;;;;;;5130438;27;20129;-82
2024/01/04 05:46:50;;;;;;;11.05;10.13;;;3.90;99.90;;;;;;5100742;27;20035;-82
2024/01/04 05:49:16;;;;;;;13.48;12.57;;;3.90;99.90;;;;;;5148482;27;20073;-82
2024/01/04 05:51:41;;;;;;;11.95;10.93;;;3.80;99.90;;;;;;5128319;27;20033;-82
2024/01/04 05:54:08;;;;;;;11.32;10.38;;;3.80;99.90;;;;;;5107309;27;20487;-83
2024/01/04 05:56:33;;;;;;;11.88;10.88;;;3.80;99.90;;;;;;5148570;27;20070;-82
2024/01/04 05:58:59;;;;;;;11.48;10.38;;;3.70;99.90;;;;;;5110703;27;20106;-82
2024/01/04 06:01:24;;;;;;;12.00;11.18;;;3.70;99.90;;;;;;5118514;27;20068;-82
2024/01/04 06:03:50;;;;;;;12.00;10.90;;;3.70;99.90;;;;;;5119801;27;20121;-82
2024/01/04 06:06:16;;;;;;;11.32;10.43;;;3.70;99.90;;;;;;5127443;27;20041;-82
2024/01/04 06:08:42;;;;;;;12.15;11.23;;;3.70;99.90;;;;;;5104747;27;20807;-82
2024/01/04 06:11:09;;;;;;;12.48;11.25;;;3.70;99.90;;;;;;5101998;27;20446;-82
2024/01/04 06:13:35;;;;;;;12.50;11.20;;;3.70;99.90;;;;;;5104354;27;20030;-83
2024/01/04 06:16:06;;;;;;;12.63;11.63;;;3.70;99.90;;;;;;5118348;27;20853;-82
2024/01/04 06:18:31;;;;;;;13.00;11.90;;;3.70;99.90;;;;;;5125637;27;20108;-82
2024/01/04 06:20:57;;;;;;;12.32;11.23;;;3.70;99.90;;;;;;5129716;27;20523;-82
2024/01/04 06:23:23;;;;;;;13.05;12.05;;;3.60;99.90;;;;;;5124949;27;20099;-82
2024/01/04 06:25:48;;;;;;;12.73;11.50;;;3.70;99.90;;;;;;5116958;27;20038;-82
2024/01/04 06:28:14;;;;;;;13.60;12.30;;;3.60;99.90;;;;;;5151919;27;20055;-82
2024/01/04 06:30:40;;;;;;;12.05;10.88;;;3.60;99.90;;;;;;5138201;27;20521;-82
2024/01/04 06:33:05;;;;;;;12.45;11.38;;;3.60;99.90;;;;;;5142551;27;20042;-83
2024/01/04 06:35:31;;;;;;;12.52;11.32;;;3.50;99.90;;;;;;5111870;27;20111;-82
2024/01/04 06:37:57;;;;;;;12.75;11.65;;;3.50;99.90;;;;;;5115155;27;20042;-82
2024/01/04 06:40:22;;;;;;;12.00;10.88;;;3.40;99.90;;;;;;5099599;27;20627;-82
2024/01/04 06:42:55;;;;;;;12.65;11.60;;;3.40;99.90;;;;;;5123264;27;20074;-82
2024/01/04 06:45:24;;;;;;;11.55;10.65;;;3.40;99.90;;;;;;5112825;27;20046;-82
2024/01/04 06:47:50;;;;;;;11.35;10.55;;;3.30;99.90;;;;;;5136916;27;20049;-82
2024/01/04 06:50:16;;;;;;;11.00;10.02;;;3.30;99.90;;;;;;5115942;27;20129;-83
2024/01/04 06:52:41;;;;;;;10.98;10.25;;;3.30;99.90;;;;;;5104819;27;20623;-82
2024/01/04 06:55:08;;;;;;;12.05;10.88;;;3.20;99.90;;;;;;5111886;27;20043;-83
2024/01/04 06:57:34;;;;;;;14.90;11.75;;;3.30;99.90;;;;;;5108638;27;20073;-82
2024/01/04 06:59:59;;;;;;;14.13;10.77;;;3.20;99.90;;;;;;5113147;27;20075;-82
2024/01/04 07:02:25;;;;;;;11.98;11.10;;;3.20;99.90;;;;;;5115579;27;20491;-81
2024/01/04 07:04:50;;;;;;;12.02;11.15;;;3.20;99.90;;;;;;5119098;27;20043;-82
2024/01/04 07:07:16;;;;;;;11.88;10.88;;;3.10;99.90;;;;;;5103470;27;20050;-82
2024/01/04 07:09:41;;;;;;;11.68;10.73;;;3.10;99.90;;;;;;5094951;27;20560;-82
2024/01/04 07:12:07;;;;;;;12.13;11.07;;;3.20;99.90;;;;;;5119556;27;20038;-83
2024/01/04 07:14:38;;;;;;;11.30;10.40;;;3.20;99.90;;;;;;5109387;27;20034;-82
2024/01/04 07:17:04;;;;;;;11.52;10.82;;;3.10;99.90;;;;;;5145777;27;20039;-83
2024/01/04 07:19:29;;;;;;;12.07;11.10;;;3.10;99.90;;;;;;5145947;27;20026;-83
2024/01/04 07:21:55;;;;;;;12.50;11.40;;;3.00;99.90;;;;;;5100674;27;20031;-83
2024/01/04 07:24:21;;;;;;;12.05;10.95;;;3.00;99.90;;;;;;5105751;27;20434;-83
2024/01/04 07:26:47;;;;;;;11.00;10.00;;;3.00;99.90;;;;;;5121018;27;20077;-83
2024/01/04 07:29:13;;;;;;;14.15;11.15;;;2.90;99.90;;;;;;5101856;27;20429;-83
2024/01/04 07:31:39;;;;;;;12.73;11.65;;;2.90;99.90;;;;;;5143760;27;20068;-83
2024/01/04 07:34:06;;;;;;;11.00;10.10;;;2.90;99.90;;;;;;5104600;27;20039;-83
2024/01/04 07:36:34;;;;;;;10.50;9.80;;;2.90;99.90;;;;;;5124572;27;20061;-82
2024/01/04 07:39:00;;;;;;;11.15;10.25;;;2.90;99.90;;;;;;5115131;27;20039;-83
2024/01/04 07:41:26;;;;;;;10.38;9.70;;;2.80;99.90;;;;;;5097622;27;20039;-82
2024/01/04 07:43:52;;;;;;;11.43;10.55;;;2.80;99.90;;;;;;5128953;27;20031;-83
2024/01/04 07:46:17;;;;;;;11.38;10.48;;;2.80;99.90;;;;;;5119098;27;20046;-83
2024/01/04 07:48:44;;;;;;;10.82;10.02;;;2.70;99.90;;;;;;5117418;27;20043;-83
2024/01/04 07:51:09;;;;;;;11.57;10.82;;;2.70;99.90;;;;;;5100089;27;20138;-83
2024/01/04 07:53:35;;;;;;;10.70;9.80;;;2.70;99.90;;;;;;5112942;27;20110;-83
2024/01/04 07:56:01;;;;;;;11.07;10.05;;;2.60;99.90;;;;;;5128446;27;20027;-83
2024/01/04 07:58:26;;;;;;;10.85;10.00;;;2.60;99.90;;;;;;5131971;27;20034;-82
2024/01/04 08:00:52;;;;;;;11.23;10.38;;;2.50;99.90;;;;;;5105395;27;20046;-83
2024/01/04 08:03:17;;;;;;;11.85;10.60;;;2.50;99.90;;;;;;5104346;27;20043;-83
2024/01/04 08:05:43;;;;;;;11.43;10.45;;;2.40;99.90;;;;;;5108351;27;20678;-83
2024/01/04 08:08:08;;;;;;;12.65;11.65;;;2.40;99.90;;;;;;5118232;27;20103;-83
2024/01/04 08:10:34;;;;;;;11.20;10.40;;;2.30;99.90;;;;;;5129032;27;20532;-83
2024/01/04 08:13:00;;;;;;;12.65;11.73;;;2.30;99.90;;;;;;5103928;27;20530;-83
2024/01/04 08:15:25;;;;;;;12.23;11.43;;;2.30;99.90;;;;;;5120485;27;20031;-83
2024/01/04 08:17:51;;;;;;;11.90;11.00;;;2.30;99.90;;;;;;5100373;27;20030;-83
2024/01/04 08:20:18;;;;;;;12.15;11.15;;;2.20;99.90;;;;;;5114478;27;20078;-83
2024/01/04 08:22:43;;;;;;;12.68;11.55;;;2.20;99.90;;;;;;5109969;27;20048;-83
2024/01/04 08:25:09;;;;;;;12.30;11.40;;;2.20;99.90;;;;;;5115051;27;20070;-83
2024/01/04 08:27:35;;;;;;;13.25;12.13;;;2.30;99.90;;;;;;5110213;27;20047;-82
2024/01/04 08:30:01;;;;;;;12.95;12.10;;;2.40;99.90;;;;;;5120967;27;20100;-83
2024/01/04 08:32:26;;;;;;;12.88;11.57;;;2.50;99.90;;;;;;5115865;27;20115;-83
2024/01/04 08:34:52;;;;;;;12.05;11.23;;;2.60;99.90;;;;;;5107513;27;20035;-83
2024/01/04 08:37:18;;;;;;;12.88;11.75;;;2.60;99.90;;;;;;5118938;27;20126;-83
2024/01/04 08:39:45;;;;;;;12.88;11.98;;;2.60;99.90;;;;;;5106151;27;20495;-83
2024/01/04 08:42:10;;;;;;;12.90;11.80;;;2.60;99.90;;;;;;5113386;28;20056;-83
2024/01/04 08:44:36;;;;;;;12.68;11.60;;;2.60;99.90;;;;;;5109928;28;20054;-83
2024/01/04 08:47:02;;;;;;;13.68;12.40;;;2.60;99.90;;;;;;5108363;28;20035;-82
2024/01/04 08:49:27;;;;;;;14.93;13.48;;;2.70;99.90;;;;;;5106705;28;20503;-83
2024/01/04 08:51:53;;;;;;;14.25;12.70;;;2.70;99.90;;;;;;5114586;28;20034;-82
2024/01/04 08:54:19;;;;;;;15.98;14.50;;;2.60;99.90;;;;;;5099295;28;20380;-83
2024/01/04 08:56:45;;;;;;;17.58;15.82;;;2.60;99.90;;;;;;5108343;28;20042;-83
2024/01/04 08:59:10;;;;;;;15.65;14.25;;;2.70;99.90;;;;;;5101743;28;20035;-83
2024/01/04 09:01:36;;;;;;;20.63;15.45;;;2.70;99.90;;;;;;5109091;28;20496;-83
2024/01/04 09:04:01;;;;;;;17.23;15.63;;;2.80;99.90;;;;;;5104898;28;20031;-83
2024/01/04 09:06:28;;;;;;;15.35;13.95;;;2.90;99.90;;;;;;5099613;28;20560;-83
2024/01/04 09:08:54;;;;;;;15.63;14.13;;;3.00;99.90;;;;;;5126258;28;20062;-83
2024/01/04 09:11:20;;;;;;;15.23;13.93;;;3.00;99.90;;;;;;5097335;28;20039;-83
2024/01/04 09:13:47;;;;;;;14.00;12.63;;;3.10;99.90;;;;;;5124199;28;20117;-83
2024/01/04 09:16:13;;;;;;;14.15;12.85;;;3.20;99.90;;;;;;5120798;28;20050;-83
2024/01/04 09:18:38;;;;;;;13.75;12.55;;;3.30;99.90;;;;;;5125141;28;20041;-83
2024/01/04 09:21:04;;;;;;;12.43;11.50;;;3.40;99.90;;;;;;5115996;28;20135;-83
2024/01/04 09:23:30;;;;;;;12.98;11.55;;;3.40;99.90;;;;;;5118963;28;20055;-82
2024/01/04 09:25:56;;;;;;;13.32;12.13;;;3.50;99.90;;;;;;5124416;27;20089;-83
2024/01/04 09:28:24;;;;;;;11.82;10.55;;;3.60;99.90;;;;;;5110291;28;20573;-83
2024/01/04 09:30:50;;;;;;;11.70;10.70;;;3.70;99.90;;;;;;5120402;28;20031;-83
2024/01/04 09:33:16;;;;;;;11.93;10.85;;;3.80;99.90;;;;;;5119577;28;20045;-83
2024/01/04 09:35:41;;;;;;;11.95;10.90;;;3.90;99.90;;;;;;5123681;28;20070;-83
2024/01/04 09:38:07;;;;;;;12.02;11.02;;;4.10;99.90;;;;;;5122838;28;20123;-83
2024/01/04 09:40:33;;;;;;;11.55;10.50;;;4.30;99.90;;;;;;5120674;28;20038;-83
2024/01/04 09:43:00;;;;;;;12.52;9.95;;;4.40;99.90;;;;;;5119533;28;20039;-83
2024/01/04 09:45:28;;;;;;;11.32;10.20;;;4.60;99.90;;;;;;5127944;27;20078;-82
2024/01/04 09:47:56;;;;;;;10.20;9.40;;;4.70;99.90;;;;;;5123633;27;20047;-83
2024/01/04 09:50:23;;;;;;;11.10;10.07;;;4.80;99.90;;;;;;5127002;27;20051;-82
2024/01/04 09:52:55;;;;;;;10.07;9.23;;;4.80;99.90;;;;;;5119850;27;20039;-83
2024/01/04 09:55:22;;;;;;;10.32;9.40;;;4.80;99.90;;;;;;5117359;27;20043;-82
2024/01/04 09:57:48;;;;;;;10.88;9.82;;;4.90;99.90;;;;;;5125571;27;20074;-83
2024/01/04 10:00:15;;;;;;;9.93;9.02;;;4.90;99.90;;;;;;5121468;27;20085;-83
2024/01/04 10:02:44;;;;;;;10.55;9.68;;;4.90;99.90;;;;;;5121586;27;20415;-83
2024/01/04 10:05:18;;;;;;;9.82;9.02;;;5.00;99.90;;;;;;5123722;27;20072;-83
2024/01/04 10:08:12;;;;;;;9.57;8.77;;;5.00;99.90;;;;;;5130365;27;20561;-82
2024/01/04 10:10:42;;;;;;;8.80;8.10;;;5.00;99.90;;;;;;5130070;27;20035;-83
2024/01/04 10:13:08;;;;;;;9.10;8.27;;;5.00;99.90;;;;;;5121883;27;20039;-83
2024/01/04 10:15:36;;;;;;;8.95;8.15;;;4.90;99.90;;;;;;5123919;27;20034;-82
2024/01/04 10:18:03;;;;;;;9.00;8.40;;;4.80;99.90;;;;;;5119996;27;20039;-82
2024/01/04 10:20:29;;;;;;;9.35;8.75;;;4.70;99.90;;;;;;5133480;27;20087;-82
2024/01/04 10:22:57;;;;;;;9.02;8.32;;;4.70;99.90;;;;;;5147434;27;20047;-82
2024/01/04 10:25:23;;;;;;;9.85;8.95;;;4.60;99.90;;;;;;5148865;27;20041;-82
2024/01/04 10:27:56;;;;;;;9.68;8.98;;;4.70;99.90;;;;;;5154690;27;20058;-82
2024/01/04 10:30:22;;;;;;;9.80;8.90;;;4.70;99.90;;;;;;5129485;27;20048;-81
2024/01/04 10:32:51;;;;;;;9.82;8.93;;;4.80;99.90;;;;;;5145247;27;20042;-83
2024/01/04 10:35:27;;;;;;;9.00;8.30;;;4.90;99.90;;;;;;5118127;27;20050;-82
2024/01/04 10:37:58;;;;;;;9.48;8.68;;;5.00;99.90;;;;;;5106364;27;20051;-82
2024/01/04 10:40:25;;;;;;;9.32;8.63;;;5.10;99.90;;;;;;5102239;27;20047;-82
2024/01/04 10:42:53;;;;;;;9.13;8.32;;;5.10;99.90;;;;;;5130007;27;20118;-82
2024/01/04 10:45:29;;;;;;;9.13;8.10;;;5.20;99.90;;;;;;5114083;27;20572;-83
2024/01/04 10:47:55;;;;;;;9.82;8.90;;;5.30;99.90;;;;;;5123030;27;20043;-82
2024/01/04 10:50:24;;;;;;;9.15;7.82;;;5.40;99.90;;;;;;5117965;27;20061;-83
2024/01/04 10:52:56;;;;;;;8.18;7.57;;;5.40;99.90;;;;;;5128270;27;20031;-83
2024/01/04 10:55:24;;;;;;;8.43;7.82;;;5.50;99.90;;;;;;5092543;27;20046;-82
2024/01/04 10:57:53;;;;;;;8.95;8.15;;;5.50;99.90;;;;;;5125373;27;20039;-82
2024/01/04 11:00:19;;;;;;;8.88;8.05;;;5.50;99.90;;;;;;5129682;27;20045;-82
2024/01/04 11:02:45;;;;;;;8.35;7.72;;;5.50;99.90;;;;;;5111622;27;20043;-82
2024/01/04 11:05:11;;;;;;;9.43;8.45;;;5.60;99.90;;;;;;5127016;27;20043;-82
2024/01/04 11:07:41;;;;;;;8.40;7.80;;;5.80;99.90;;;;;;5118925;27;20038;-82
2024/01/04 11:10:09;;;;;;;8.63;7.93;;;5.90;99.90;;;;;;5113485;27;20450;-82
2024/01/04 11:12:37;;;;;;;8.18;7.47;;;5.90;99.90;;;;;;5094775;28;20085;-82
2024/01/04 11:15:04;;;;;;;8.10;7.40;;;6.00;99.90;;;;;;5100869;28;20597;-83
2024/01/04 11:17:44;;;;;;;9.13;8.07;;;5.90;99.90;;;;;;5123891;27;20081;-82
2024/01/04 11:20:18;;;;;;;8.30;7.70;;;5.90;99.90;;;;;;5126738;27;20031;-82
2024/01/04 11:23:02;;;;;;;8.70;7.90;;;5.80;99.90;;;;;;5097234;27;20105;-82
2024/01/04 11:26:00;;;;;;;8.82;8.13;;;5.60;99.90;;;;;;5107378;27;20047;-82
2024/01/04 11:28:27;;;;;;;8.27;7.57;;;5.50;99.90;;;;;;5124184;27;20072;-82
2024/01/04 11:30:53;;;;;;;8.35;7.65;;;5.50;99.90;;;;;;5117736;27;20044;-82
2024/01/04 11:33:22;;;;;;;8.70;7.80;;;5.50;99.90;;;;;;5118212;27;20126;-82
2024/01/04 11:35:51;;;;;;;8.30;7.70;;;5.50;99.90;;;;;;5094299;28;20039;-82
2024/01/04 11:38:34;;;;;;;9.02;8.25;;;5.50;99.90;;;;;;5115043;27;20518;-82
2024/01/04 11:40:59;;;;;;;9.23;8.43;;;5.60;99.90;;;;;;5116211;27;20411;-82
2024/01/04 11:43:37;;;;;;;8.57;7.78;;;5.70;99.90;;;;;;5111526;27;20043;-82
2024/01/04 11:46:26;;;;;;;8.35;7.13;;;5.70;99.90;;;;;;5123680;27;20098;-82
2024/01/04 11:48:58;;;;;;;8.15;7.40;;;5.70;99.90;;;;;;5114070;27;20058;-82
2024/01/04 11:51:44;;;;;;;8.07;7.38;;;5.70;99.90;;;;;;5116352;27;20074;-82
2024/01/04 11:54:10;;;;;;;7.90;7.30;;;5.60;99.90;;;;;;5101203;27;20039;-82
2024/01/04 11:56:39;;;;;;;7.70;7.10;;;5.70;99.90;;;;;;5124681;27;20050;-82
2024/01/04 11:59:13;;;;;;;7.72;7.22;;;5.70;99.90;;;;;;5109787;28;20047;-82
2024/01/04 12:01:40;;;;;;;8.23;7.68;;;5.60;99.90;;;;;;5108266;27;20100;-82
2024/01/04 12:04:07;;;;;;;8.90;7.93;;;5.50;99.90;;;;;;5123331;27;20038;-82
2024/01/04 12:06:34;;;;;;;8.45;7.75;;;5.50;99.90;;;;;;5117405;27;20043;-82
2024/01/04 12:09:01;;;;;;;8.95;8.05;;;5.50;99.90;;;;;;5113809;27;20124;-82
2024/01/04 12:11:27;;;;;;;8.57;7.90;;;5.50;99.90;;;;;;5111661;27;20484;-82
2024/01/04 12:13:53;;;;;;;7.90;7.30;;;5.40;99.90;;;;;;5106456;27;20039;-82
2024/01/04 12:16:18;;;;;;;8.50;7.80;;;5.40;99.90;;;;;;5110458;27;20068;-82
2024/01/04 12:18:45;;;;;;;8.18;7.57;;;5.50;99.90;;;;;;5113661;27;20468;-82
2024/01/04 12:21:12;;;;;;;7.93;7.30;;;5.60;99.90;;;;;;5118611;27;20437;-82
2024/01/04 12:23:39;;;;;;;8.35;7.65;;;5.60;99.90;;;;;;5113838;27;20055;-82
2024/01/04 12:26:06;;;;;;;8.63;7.93;;;5.60;99.90;;;;;;5124561;27;20049;-82
2024/01/04 12:28:32;;;;;;;7.93;7.32;;;5.70;99.90;;;;;;5110562;27;20042;-82